Time;durP1;ratioP1;P1;durP2;ratioP2;P2;SDS_P1;SDS_P2;PMS_P1;PMS_P2;Temp;Humidity;BMP_temperature;BMP_pressure;BME280_temperature;BME280_humidity;BME280_pressure;Samples;Min_cycle;Max_cycle;Signal;HPM_P1;HPM_P2
2021/09/13 00:01:26;;;;;;;61.88;18.25;;;;;;;12.43;100.00;100532.05;1709985;84;20944;-53
2021/09/13 00:03:53;;;;;;;48.52;16.05;;;;;;;12.50;100.00;100534.45;1710529;84;20908;-52
2021/09/13 00:06:21;;;;;;;40.52;16.02;;;;;;;12.55;100.00;100534.35;1688030;85;21556;-53
2021/09/13 00:08:49;;;;;;;44.42;15.23;;;;;;;12.56;100.00;100526.09;1722734;83;21402;-53
2021/09/13 00:11:15;;;;;;;46.70;15.65;;;;;;;12.55;100.00;100530.45;1722783;83;21509;-53
2021/09/13 00:13:44;;;;;;;32.88;14.00;;;;;;;12.55;100.00;100530.89;1722644;83;21458;-52
2021/09/13 00:16:10;;;;;;;29.30;14.58;;;;;;;12.55;100.00;100536.95;1721829;83;20991;-52
2021/09/13 00:18:39;;;;;;;34.60;15.00;;;;;;;12.54;100.00;100529.19;1721229;83;21011;-52
2021/09/13 00:21:05;;;;;;;45.35;16.05;;;;;;;12.49;100.00;100519.77;1721356;83;20900;-53
2021/09/13 00:23:34;;;;;;;68.22;16.82;;;;;;;12.50;100.00;100522.77;1721536;83;20873;-53
2021/09/13 00:26:01;;;;;;;59.73;16.60;;;;;;;12.60;100.00;100526.42;1721399;83;21522;-53
2021/09/13 00:28:29;;;;;;;68.07;16.85;;;;;;;12.64;100.00;100521.13;1684397;84;21058;-53
2021/09/13 00:30:57;;;;;;;67.10;17.37;;;;;;;12.69;100.00;100522.31;1721417;83;21563;-53
2021/09/13 00:33:25;;;;;;;44.85;14.53;;;;;;;12.72;100.00;100514.86;1684399;85;20936;-53
2021/09/13 00:35:51;;;;;;;53.58;15.28;;;;;;;12.77;100.00;100516.45;1721597;83;21899;-53
2021/09/13 00:38:20;;;;;;;59.20;16.02;;;;;;;12.84;100.00;100508.48;1721288;83;21007;-54
2021/09/13 00:40:49;;;;;;;60.28;17.02;;;;;;;12.88;100.00;100518.77;1721356;83;21030;-53
2021/09/13 00:43:18;;;;;;;86.42;17.55;;;;;;;12.91;100.00;100518.68;1721420;83;20991;-53
2021/09/13 00:45:46;;;;;;;65.12;16.62;;;;;;;12.91;100.00;100511.35;1721572;83;21489;-53
2021/09/13 00:48:14;;;;;;;47.73;17.37;;;;;;;12.92;100.00;100513.89;1721617;83;21482;-53
2021/09/13 00:50:42;;;;;;;47.62;15.25;;;;;;;12.93;100.00;100518.19;1721482;83;20893;-53
2021/09/13 00:53:08;;;;;;;43.20;15.35;;;;;;;12.96;100.00;100509.91;1721412;83;21015;-53
2021/09/13 00:55:35;;;;;;;54.35;15.55;;;;;;;12.99;100.00;100515.88;1721517;83;20975;-53
2021/09/13 00:58:03;;;;;;;45.00;14.87;;;;;;;13.03;100.00;100516.20;1721428;83;20896;-53
2021/09/13 01:00:30;;;;;;;41.88;14.70;;;;;;;13.06;100.00;100509.61;1684788;85;21854;-53
2021/09/13 01:02:56;;;;;;;38.13;15.10;;;;;;;13.10;100.00;100512.12;1721416;83;20841;-53
2021/09/13 01:05:24;;;;;;;48.05;15.13;;;;;;;13.11;100.00;100512.09;1721560;83;22527;-53
2021/09/13 01:07:53;;;;;;;43.30;15.72;;;;;;;13.14;100.00;100514.59;1684535;84;21450;-53
2021/09/13 01:10:20;;;;;;;33.30;14.43;;;;;;;13.13;100.00;100511.59;1721941;83;21564;-53
2021/09/13 01:12:47;;;;;;;31.33;13.20;;;;;;;13.12;100.00;100507.73;1721386;83;21195;-53
2021/09/13 01:15:15;;;;;;;37.53;14.33;;;;;;;13.15;100.00;100503.77;1721330;83;20983;-52
2021/09/13 01:17:43;;;;;;;34.08;14.95;;;;;;;13.16;100.00;100507.61;1719299;83;20892;-52
2021/09/13 01:20:12;;;;;;;42.93;14.93;;;;;;;13.14;100.00;100506.80;1682148;85;21039;-53
2021/09/13 01:22:40;;;;;;;42.13;13.90;;;;;;;13.10;100.00;100512.98;1682136;85;20980;-53
2021/09/13 01:25:09;;;;;;;43.13;14.03;;;;;;;13.06;100.00;100510.91;1682139;85;21160;-53
2021/09/13 01:27:36;;;;;;;34.80;13.98;;;;;;;13.02;100.00;100507.16;1681975;85;20964;-53
2021/09/13 01:30:06;;;;;;;29.02;14.00;;;;;;;12.99;100.00;100504.63;1682238;85;21506;-53
2021/09/13 01:32:33;;;;;;;48.78;13.93;;;;;;;12.96;100.00;100511.20;1681958;85;20984;-53
2021/09/13 01:34:59;;;;;;;34.65;13.60;;;;;;;12.91;100.00;100509.59;1719226;83;20928;-53
2021/09/13 01:37:29;;;;;;;40.33;14.78;;;;;;;12.88;100.00;100514.87;1719242;83;21179;-53
2021/09/13 01:39:58;;;;;;;36.93;13.93;;;;;;;12.85;100.00;100507.59;1718771;83;20884;-53
2021/09/13 01:42:24;;;;;;;40.28;14.83;;;;;;;12.83;100.00;100507.66;1682131;85;20952;-53
2021/09/13 01:44:51;;;;;;;35.48;14.40;;;;;;;12.79;100.00;100504.28;1682119;85;20964;-53
2021/09/13 01:47:19;;;;;;;35.52;13.70;;;;;;;12.76;100.00;100507.42;1719120;83;21564;-53
2021/09/13 01:49:48;;;;;;;34.55;13.50;;;;;;;12.73;100.00;100511.37;1719203;83;21161;-53
2021/09/13 01:52:14;;;;;;;35.45;13.05;;;;;;;12.69;100.00;100511.05;1719288;83;20983;-53
2021/09/13 01:54:41;;;;;;;43.98;14.33;;;;;;;12.65;100.00;100511.60;1719081;83;21059;-53
2021/09/13 01:57:10;;;;;;;41.83;14.13;;;;;;;12.61;100.00;100512.11;1719031;83;20983;-53
2021/09/13 01:59:38;;;;;;;33.75;14.30;;;;;;;12.57;100.00;100512.22;1682100;85;20936;-53
2021/09/13 02:02:05;;;;;;;44.08;13.78;;;;;;;12.55;100.00;100510.98;1682433;85;21280;-53
2021/09/13 02:04:32;;;;;;;33.85;13.30;;;;;;;12.54;100.00;100507.98;1718812;83;21464;-53
2021/09/13 02:06:58;;;;;;;39.38;14.75;;;;;;;12.52;100.00;100508.47;1682307;85;21415;-54
2021/09/13 02:09:25;;;;;;;35.17;13.28;;;;;;;12.49;100.00;100503.33;1719234;83;20861;-53
2021/09/13 02:11:52;;;;;;;53.80;13.85;;;;;;;12.44;100.00;100501.30;1682233;85;20964;-53
2021/09/13 02:14:20;;;;;;;79.47;17.27;;;;;;;12.43;100.00;100502.19;1682153;85;21182;-53
2021/09/13 02:16:49;;;;;;;80.15;17.05;;;;;;;12.39;100.00;100502.73;1659501;84;21710;-53
2021/09/13 02:19:15;;;;;;;50.25;14.65;;;;;;;12.38;100.00;100506.66;1719850;83;21517;-53
2021/09/13 02:21:44;;;;;;;54.50;15.18;;;;;;;12.36;100.00;100502.36;1697609;84;21462;-53
2021/09/13 02:24:11;;;;;;;55.12;15.65;;;;;;;12.36;100.00;100510.14;1719870;83;20900;-53
2021/09/13 02:26:38;;;;;;;59.75;14.50;;;;;;;12.34;100.00;100506.73;1720148;83;21090;-53
2021/09/13 02:29:04;;;;;;;54.20;14.10;;;;;;;12.31;100.00;100510.71;1719760;83;21034;-53
2021/09/13 02:31:31;;;;;;;43.30;14.13;;;;;;;12.30;100.00;100502.52;1697481;84;20908;-53
2021/09/13 02:33:58;;;;;;;48.40;13.58;;;;;;;12.27;100.00;100503.89;1720141;83;20904;-53
2021/09/13 02:36:26;;;;;;;39.20;13.93;;;;;;;12.25;100.00;100498.33;1719853;83;20956;-53
2021/09/13 02:38:53;;;;;;;38.23;13.20;;;;;;;12.21;100.00;100501.42;1697439;84;21203;-53
2021/09/13 02:41:20;;;;;;;37.48;13.58;;;;;;;12.17;100.00;100503.27;1719858;83;21023;-53
2021/09/13 02:43:47;;;;;;;29.65;13.03;;;;;;;12.15;100.00;100505.48;1720242;83;20948;-53
2021/09/13 02:46:15;;;;;;;30.95;12.65;;;;;;;12.11;100.00;100504.69;1719871;83;20964;-53
2021/09/13 02:48:42;;;;;;;30.05;14.07;;;;;;;12.10;100.00;100502.15;1692934;83;21011;-53
2021/09/13 02:51:09;;;;;;;217.65;112.45;;;;;;;12.06;100.00;100501.36;1719871;83;20991;-53
2021/09/13 02:53:38;;;;;;;88.67;43.00;;;;;;;12.05;100.00;100500.95;1719750;83;20983;-52
2021/09/13 02:56:06;;;;;;;41.98;20.05;;;;;;;12.03;100.00;100503.59;1719733;83;21011;-52
2021/09/13 02:58:34;;;;;;;37.00;16.15;;;;;;;12.00;100.00;100500.18;1719592;83;20968;-52
2021/09/13 03:01:01;;;;;;;58.23;19.77;;;;;;;11.98;100.00;100498.91;1719994;83;21506;-52
2021/09/13 03:03:27;;;;;;;44.73;17.55;;;;;;;11.93;100.00;100500.33;1720134;83;21743;-52
2021/09/13 03:05:53;;;;;;;46.35;16.35;;;;;;;11.89;100.00;100500.00;1719786;83;20908;-52
2021/09/13 03:08:21;;;;;;;42.53;16.23;;;;;;;11.86;100.00;100501.80;1719918;83;20980;-53
2021/09/13 03:10:48;;;;;;;38.17;15.80;;;;;;;11.82;100.00;100499.71;1719795;83;20912;-54
2021/09/13 03:13:15;;;;;;;44.13;14.65;;;;;;;11.78;100.00;100496.36;1719814;83;21022;-53
2021/09/13 03:15:45;;;;;;;89.42;18.27;;;;;;;11.76;100.00;100502.02;1697490;84;21014;-53
2021/09/13 03:18:12;;;;;;;67.62;17.20;;;;;;;11.76;100.00;100505.91;1721242;82;20920;-53
2021/09/13 03:20:38;;;;;;;60.80;16.12;;;;;;;11.80;100.00;100506.67;1682162;85;20965;-53
2021/09/13 03:23:05;;;;;;;33.18;13.93;;;;;;;11.82;100.00;100514.44;1719334;83;20952;-53
2021/09/13 03:25:31;;;;;;;31.60;12.78;;;;;;;11.83;100.00;100516.98;1719139;83;21003;-53
2021/09/13 03:27:59;;;;;;;31.75;12.63;;;;;;;11.84;100.00;100507.47;1682442;85;22240;-53
2021/09/13 03:30:27;;;;;;;29.32;12.78;;;;;;;11.85;100.00;100509.17;1682020;85;20909;-53
2021/09/13 03:32:54;;;;;;;33.40;11.63;;;;;;;11.85;100.00;100507.87;1682409;85;21060;-53
2021/09/13 03:35:21;;;;;;;22.02;14.07;;;;;;;11.82;100.00;100508.79;1682295;85;21454;-53
2021/09/13 03:37:48;;;;;;;34.78;12.33;;;;;;;11.79;100.00;100511.45;1652385;85;21436;-53
2021/09/13 03:40:14;;;;;;;29.65;13.93;;;;;;;11.76;100.00;100511.53;1719401;83;22207;-53
2021/09/13 03:42:41;;;;;;;36.73;12.98;;;;;;;11.75;100.00;100508.53;1719277;83;21426;-53
2021/09/13 03:45:09;;;;;;;26.10;12.50;;;;;;;11.76;100.00;100511.53;1719205;83;20946;-53
2021/09/13 03:47:48;;;;;;;24.40;12.95;;;;;;;11.76;100.00;100505.91;1692909;83;21565;-53
2021/09/13 03:50:14;;;;;;;32.98;13.00;;;;;;;11.78;100.00;100510.62;1719402;83;21023;-53
2021/09/13 03:52:41;;;;;;;28.77;13.22;;;;;;;11.83;100.00;100509.66;1682087;85;21229;-53
2021/09/13 03:55:10;;;;;;;28.60;13.22;;;;;;;11.84;100.00;100509.60;1718961;83;21046;-53
2021/09/13 03:57:36;;;;;;;33.48;13.13;;;;;;;11.88;100.00;100505.20;1682432;85;20913;-54
2021/09/13 04:00:05;;;;;;;31.48;13.10;;;;;;;11.95;100.00;100509.36;1682279;85;20952;-53
2021/09/13 04:02:36;;;;;;;39.35;13.60;;;;;;;12.04;100.00;100506.59;1681141;85;22175;-53
2021/09/13 04:05:03;;;;;;;36.35;15.08;;;;;;;12.16;100.00;100511.94;1719291;83;21142;-53
2021/09/13 04:07:49;;;;;;;24.98;12.35;;;;;;;12.29;100.00;100512.49;1693443;83;20948;-53
2021/09/13 04:10:20;;;;;;;34.75;12.25;;;;;;;12.46;100.00;100515.96;1677487;85;21539;-53
2021/09/13 04:12:51;;;;;;;34.35;12.60;;;;;;;12.65;100.00;100515.03;1680569;85;21424;-53
2021/09/13 04:15:26;;;;;;;36.88;13.10;;;;;;;12.87;100.00;100504.08;1680157;85;21463;-52
2021/09/13 04:18:01;;;;;;;30.05;14.40;;;;;;;13.09;100.00;100513.88;1682613;85;21304;-54
2021/09/13 04:20:47;;;;;;;27.35;11.90;;;;;;;13.31;100.00;100514.58;1683088;85;20992;-53
2021/09/13 04:23:32;;;;;;;28.05;12.55;;;;;;;13.54;100.00;100515.69;1683242;85;20975;-53
2021/09/13 04:26:06;;;;;;;51.48;13.78;;;;;;;13.75;100.00;100511.57;1643898;85;20953;-53
2021/09/13 04:28:51;;;;;;;43.68;13.05;;;;;;;13.99;100.00;100516.91;1683088;84;21383;-53
2021/09/13 04:31:36;;;;;;;27.77;11.73;;;;;;;14.25;100.00;100513.45;1657759;85;22132;-53
2021/09/13 04:34:04;;;;;;;47.45;12.82;;;;;;;14.48;100.00;100511.83;1680958;85;20988;-53
2021/09/13 04:36:32;;;;;;;37.85;12.58;;;;;;;14.65;100.00;100507.34;1678834;85;21463;-53
2021/09/13 04:39:06;;;;;;;32.75;12.35;;;;;;;14.80;100.00;100499.03;1645309;85;21000;-53
2021/09/13 04:41:36;;;;;;;19.15;10.75;;;;;;;14.94;100.00;100501.14;1677659;85;20991;-53
2021/09/13 04:44:07;;;;;;;28.00;11.68;;;;;;;15.11;100.00;100502.73;1680021;85;21786;-53
2021/09/13 04:46:42;;;;;;;29.92;12.43;;;;;;;15.23;100.00;100503.14;1679757;85;20980;-53
2021/09/13 04:49:10;;;;;;;52.33;15.48;;;;;;;15.35;100.00;100510.12;1681095;85;20968;-54
2021/09/13 04:51:56;;;;;;;86.20;17.50;;;;;;;15.43;100.00;100504.16;1683272;84;20948;-53
2021/09/13 04:54:27;;;;;;;72.22;16.37;;;;;;;15.53;100.00;100504.66;1682684;85;21000;-53
2021/09/13 04:56:53;;;;;;;65.97;14.93;;;;;;;15.59;100.00;100505.71;1719871;83;21292;-53
2021/09/13 04:59:21;;;;;;;64.12;14.80;;;;;;;15.63;99.21;100505.16;1692955;83;20933;-53
2021/09/13 05:01:47;;;;;;;77.55;14.43;;;;;;;15.65;98.11;100504.64;1719960;83;20990;-53
2021/09/13 05:04:14;;;;;;;51.45;13.00;;;;;;;15.68;97.17;100508.42;1719896;83;21576;-53
2021/09/13 05:06:41;;;;;;;42.05;12.05;;;;;;;15.72;96.24;100505.25;1719988;83;21577;-53
2021/09/13 05:09:09;;;;;;;36.35;12.60;;;;;;;15.76;95.32;100505.52;1720397;83;21123;-53
2021/09/13 05:11:37;;;;;;;35.23;11.25;;;;;;;15.79;94.31;100504.95;1682973;85;20991;-53
2021/09/13 05:14:05;;;;;;;37.38;9.90;;;;;;;15.83;93.14;100502.22;1720051;83;20944;-53
2021/09/13 05:16:34;;;;;;;20.82;9.73;;;;;;;15.84;91.05;100499.53;1719872;83;21501;-53
2021/09/13 05:19:02;;;;;;;35.30;11.05;;;;;;;15.87;89.76;100507.70;1721312;83;20948;-54
2021/09/13 05:21:36;;;;;;;33.10;11.83;;;;;;;15.88;88.79;100504.19;1721584;83;21140;-53
2021/09/13 05:24:01;;;;;;;34.33;11.05;;;;;;;15.90;88.23;100506.31;1721201;83;21540;-54
2021/09/13 05:26:27;;;;;;;24.02;10.03;;;;;;;15.94;87.67;100507.88;1721463;83;21421;-54
2021/09/13 05:28:55;;;;;;;18.02;8.93;;;;;;;16.00;87.27;100509.41;1721490;83;20998;-54
2021/09/13 05:31:21;;;;;;;26.35;10.20;;;;;;;16.05;86.08;100512.23;1721528;83;20999;-53
2021/09/13 05:33:48;;;;;;;21.70;9.78;;;;;;;16.11;85.76;100508.97;1694608;83;21153;-54
2021/09/13 05:36:16;;;;;;;24.82;10.08;;;;;;;16.16;84.42;100507.84;1721420;83;20908;-53
2021/09/13 05:38:43;;;;;;;21.77;9.60;;;;;;;16.22;83.24;100509.37;1721495;83;20964;-54
2021/09/13 05:41:12;;;;;;;21.25;9.15;;;;;;;16.29;82.59;100508.19;1705783;83;20865;-53
2021/09/13 05:43:39;;;;;;;24.25;10.03;;;;;;;16.37;82.95;100507.44;1721591;83;20967;-53
2021/09/13 05:46:06;;;;;;;22.73;8.75;;;;;;;16.45;82.91;100511.04;1721750;83;21125;-54
2021/09/13 05:48:33;;;;;;;20.23;9.18;;;;;;;16.52;82.31;100514.22;1721412;83;20904;-55
2021/09/13 05:51:02;;;;;;;24.95;8.90;;;;;;;16.61;82.13;100512.98;1672600;83;21003;-53
2021/09/13 05:53:28;;;;;;;20.55;8.45;;;;;;;16.70;82.79;100518.27;1721439;83;20963;-53
2021/09/13 05:55:55;;;;;;;23.75;8.53;;;;;;;16.78;82.46;100514.86;1721727;83;20928;-53
2021/09/13 05:58:22;;;;;;;22.95;8.85;;;;;;;16.86;82.06;100521.93;1721398;83;21052;-54
2021/09/13 06:00:50;;;;;;;18.65;8.55;;;;;;;16.92;81.84;100515.12;1721434;83;21046;-53
2021/09/13 06:03:16;;;;;;;12.68;8.85;;;;;;;16.99;81.31;100514.43;1721740;83;21018;-52
2021/09/13 06:05:45;;;;;;;18.37;10.05;;;;;;;17.05;80.53;100518.52;1717653;83;20928;-53
2021/09/13 06:08:11;;;;;;;18.55;9.15;;;;;;;17.14;80.24;100522.05;1721442;83;20936;-53
2021/09/13 06:10:39;;;;;;;17.55;8.65;;;;;;;17.22;79.68;100525.16;1694663;83;21045;-53
2021/09/13 06:13:11;;;;;;;23.75;8.98;;;;;;;17.28;78.35;100527.09;1694726;83;20987;-53
2021/09/13 06:15:34;;;;;;;19.42;9.18;;;;;;;17.35;78.35;100528.53;1720911;83;20916;-53
2021/09/13 06:18:03;;;;;;;25.35;9.68;;;;;;;17.46;77.76;100525.42;1722028;83;21506;-53
2021/09/13 06:20:30;;;;;;;20.72;8.98;;;;;;;17.58;76.84;100531.86;1722686;83;20923;-54
2021/09/13 06:22:59;;;;;;;19.60;8.70;;;;;;;17.68;76.61;100530.49;1722831;83;20948;-53
2021/09/13 06:25:27;;;;;;;23.47;9.50;;;;;;;17.78;76.37;100527.81;1722029;83;20912;-53
2021/09/13 06:27:55;;;;;;;19.45;8.95;;;;;;;17.89;75.45;100533.85;1701551;83;20991;-53
2021/09/13 06:30:23;;;;;;;19.35;8.83;;;;;;;18.00;74.81;100531.20;1722752;83;20944;-53
2021/09/13 06:32:50;;;;;;;18.02;8.83;;;;;;;18.07;73.02;100523.00;1722969;83;20986;-53
2021/09/13 06:35:18;;;;;;;21.82;8.50;;;;;;;18.18;72.52;100536.86;1723029;83;21149;-54
2021/09/13 06:37:50;;;;;;;24.27;8.58;;;;;;;18.27;71.78;100531.63;1721537;83;21014;-52
2021/09/13 06:40:16;;;;;;;24.98;8.88;;;;;;;18.37;70.84;100534.20;1723001;83;21002;-52
2021/09/13 06:42:43;;;;;;;24.98;9.30;;;;;;;18.49;70.71;100533.18;1722779;83;21469;-52
2021/09/13 06:45:19;;;;;;;20.37;9.88;;;;;;;18.62;71.13;100530.78;1701980;83;21050;-53
2021/09/13 06:47:44;;;;;;;20.97;9.20;;;;;;;18.73;70.51;100528.47;1721729;83;21968;-52
2021/09/13 06:50:19;;;;;;;31.45;9.70;;;;;;;18.84;69.20;100527.92;1680426;83;20983;-52
2021/09/13 06:52:47;;;;;;;30.62;10.85;;;;;;;18.93;68.36;100533.13;1721677;83;20963;-52
2021/09/13 06:55:15;;;;;;;27.58;9.48;;;;;;;19.03;67.48;100530.45;1688084;84;20909;-53
2021/09/13 06:57:42;;;;;;;41.63;10.72;;;;;;;19.15;66.13;100532.02;1722931;83;20975;-52
2021/09/13 07:00:12;;;;;;;38.10;10.18;;;;;;;19.26;65.22;100530.14;1722892;83;21538;-52
2021/09/13 07:02:41;;;;;;;17.45;9.10;;;;;;;19.37;63.93;100527.80;1722708;83;20991;-52
2021/09/13 07:05:09;;;;;;;21.85;10.32;;;;;;;19.48;63.94;100534.61;1722638;83;20947;-52
2021/09/13 07:07:35;;;;;;;25.23;10.80;;;;;;;19.59;61.71;100532.70;1722725;83;20908;-52
2021/09/13 07:10:05;;;;;;;36.33;11.03;;;;;;;19.70;60.93;100530.80;1722802;83;20979;-52
2021/09/13 07:12:33;;;;;;;28.87;11.48;;;;;;;19.82;61.05;100540.61;1722545;83;21146;-52
2021/09/13 07:15:01;;;;;;;59.13;11.97;;;;;;;19.91;60.15;100535.34;1722656;83;21046;-52
2021/09/13 07:17:28;;;;;;;34.35;12.55;;;;;;;20.03;59.32;100540.36;1678168;83;20935;-52
2021/09/13 07:19:56;;;;;;;63.95;12.90;;;;;;;20.15;59.07;100537.98;1722816;83;21407;-52
2021/09/13 07:22:23;;;;;;;190.05;25.32;;;;;;;20.29;60.29;100535.87;1722813;83;21521;-52
2021/09/13 07:24:49;;;;;;;85.53;13.50;;;;;;;20.42;61.06;100536.00;1722638;83;21683;-53
2021/09/13 07:27:16;;;;;;;27.73;9.73;;;;;;;20.54;60.34;100535.27;1687843;85;20928;-52
2021/09/13 07:29:42;;;;;;;19.92;9.23;;;;;;;20.66;58.75;100534.55;1722577;83;21521;-52
2021/09/13 07:32:09;;;;;;;36.73;10.05;;;;;;;20.77;57.77;100529.09;1722702;83;21564;-52
2021/09/13 07:34:36;;;;;;;38.05;11.00;;;;;;;20.90;57.45;100539.30;1722575;83;21149;-52
2021/09/13 07:37:03;;;;;;;32.33;9.48;;;;;;;21.05;57.12;100535.34;1722662;83;21154;-52
2021/09/13 07:39:29;;;;;;;20.68;8.50;;;;;;;21.21;56.74;100536.09;1722615;83;20987;-52
2021/09/13 07:41:56;;;;;;;19.02;9.95;;;;;;;21.35;56.38;100537.04;1722828;83;21102;-52
2021/09/13 07:44:23;;;;;;;32.50;9.73;;;;;;;21.50;56.30;100540.00;1722681;83;20983;-52
2021/09/13 07:46:50;;;;;;;59.70;11.00;;;;;;;21.60;54.67;100531.50;1722532;83;20919;-52
2021/09/13 07:49:16;;;;;;;31.45;9.50;;;;;;;21.74;55.86;100530.69;1723017;83;21144;-52
2021/09/13 07:54:14;;;;;;;30.60;9.73;;;;;;;22.06;53.34;100535.64;1798148;79;22649;-52
2021/09/13 07:56:41;;;;;;;26.85;8.98;;;;;;;22.17;53.35;100537.08;1757905;81;20920;-52
2021/09/13 07:59:08;;;;;;;29.67;10.50;;;;;;;22.34;52.96;100528.04;1757983;81;21179;-52
2021/09/13 08:01:34;;;;;;;22.55;8.83;;;;;;;22.53;53.29;100525.52;1757862;81;21015;-53
2021/09/13 08:04:03;;;;;;;25.50;10.50;;;;;;;22.63;53.86;100523.96;1758305;81;20971;-53
2021/09/13 08:06:30;;;;;;;29.87;10.63;;;;;;;22.78;52.51;100526.02;1757876;81;20968;-52
2021/09/13 08:08:56;;;;;;;28.23;8.88;;;;;;;22.96;51.99;100529.17;1738962;81;20865;-52
2021/09/13 08:11:23;;;;;;;41.10;9.25;;;;;;;23.15;50.25;100519.97;1757823;81;21124;-52
2021/09/13 08:13:49;;;;;;;24.77;9.53;;;;;;;23.36;50.29;100525.53;1757886;81;21592;-52
2021/09/13 08:16:18;;;;;;;20.10;8.63;;;;;;;23.58;51.78;100529.73;1757910;81;21425;-53
2021/09/13 08:18:46;;;;;;;39.88;9.98;;;;;;;23.76;49.30;100524.94;1738669;81;20975;-53
2021/09/13 08:21:13;;;;;;;30.35;9.65;;;;;;;23.91;49.12;100522.97;1757993;81;20941;-53
2021/09/13 08:23:39;;;;;;;18.77;8.78;;;;;;;24.10;50.10;100520.64;1758175;81;21112;-53
2021/09/13 08:26:07;;;;;;;22.17;9.28;;;;;;;24.25;50.31;100524.43;1757632;80;21502;-53
2021/09/13 08:28:36;;;;;;;32.17;9.98;;;;;;;24.23;50.95;100522.39;1724225;83;20970;-53
2021/09/13 08:31:03;;;;;;;26.87;8.80;;;;;;;24.36;50.13;100517.84;1721711;83;21002;-52
2021/09/13 08:33:30;;;;;;;33.08;9.85;;;;;;;24.56;49.49;100522.59;1698462;84;20968;-52
2021/09/13 08:35:56;;;;;;;24.45;10.75;;;;;;;24.75;48.79;100519.39;1698417;83;21185;-52
2021/09/13 08:38:23;;;;;;;31.30;9.45;;;;;;;24.87;47.32;100519.74;1698638;84;20972;-52
2021/09/13 08:40:52;;;;;;;24.57;9.58;;;;;;;25.14;48.52;100517.70;1698406;84;20967;-52
2021/09/13 08:43:19;;;;;;;28.10;9.98;;;;;;;25.25;45.90;100515.88;1690426;84;20909;-52
2021/09/13 08:45:55;;;;;;;48.17;9.98;;;;;;;25.33;46.32;100517.92;1698778;84;21549;-53
2021/09/13 08:48:22;;;;;;;45.10;10.40;;;;;;;25.47;47.42;100522.14;1697632;84;21152;-53
2021/09/13 08:53:21;;;;;;;21.23;8.70;;;;;;;25.94;47.41;100513.08;1705451;83;20984;-53
2021/09/13 08:55:49;;;;;;;24.92;9.28;;;;;;;26.10;45.94;100513.47;1711566;83;20952;-53
2021/09/13 08:58:16;;;;;;;29.48;9.28;;;;;;;26.28;45.23;100516.09;1701949;84;20928;-54
2021/09/13 09:00:42;;;;;;;30.82;9.58;;;;;;;26.58;44.06;100512.62;1711436;82;21144;-53
2021/09/13 09:03:10;;;;;;;29.77;10.93;;;;;;;26.88;44.33;100508.31;1701808;84;21011;-53
2021/09/13 09:05:43;;;;;;;31.52;9.30;;;;;;;27.18;42.96;100505.30;1711044;83;21007;-53
2021/09/13 09:08:28;;;;;;;39.05;10.68;;;;;;;27.49;43.16;100503.88;1700084;84;20945;-52
2021/09/13 09:11:01;;;;;;;22.77;8.28;;;;;;;27.67;43.98;100500.08;1710892;83;21454;-53
2021/09/13 09:13:42;;;;;;;24.25;8.38;;;;;;;27.77;42.28;100505.40;1701130;84;21107;-54
2021/09/13 09:16:12;;;;;;;15.38;9.23;;;;;;;27.79;42.97;100503.94;1711037;82;20896;-52
2021/09/13 09:18:47;;;;;;;13.18;7.72;;;;;;;27.73;41.94;100501.81;1701340;84;21015;-53
2021/09/13 09:21:29;;;;;;;16.00;7.62;;;;;;;27.78;39.79;100498.25;1710821;83;20940;-53
2021/09/13 09:23:58;;;;;;;14.10;6.83;;;;;;;27.50;39.62;100498.06;1701097;84;21038;-53
2021/09/13 09:26:26;;;;;;;16.57;6.10;;;;;;;27.27;39.79;100491.66;1711022;83;21022;-54
2021/09/13 09:28:53;;;;;;;12.55;6.55;;;;;;;27.21;40.16;100495.72;1701454;84;21000;-53
2021/09/13 09:31:42;;;;;;;10.82;6.08;;;;;;;27.23;38.74;100495.09;1711169;83;21309;-53
2021/09/13 09:34:17;;;;;;;11.60;6.45;;;;;;;27.35;38.02;100493.16;1636667;84;20955;-53
2021/09/13 09:37:07;;;;;;;6.28;5.50;;;;;;;27.62;38.64;100498.33;1711179;83;21592;-53
2021/09/13 09:39:39;;;;;;;13.03;5.87;;;;;;;27.73;37.14;100489.38;1701393;83;21783;-53
2021/09/13 09:42:09;;;;;;;11.12;6.05;;;;;;;27.66;35.90;100496.22;1685696;85;21023;-53
2021/09/13 09:44:38;;;;;;;9.60;6.10;;;;;;;27.66;37.09;100490.89;1710895;82;21077;-53
2021/09/13 09:47:11;;;;;;;17.07;6.15;;;;;;;27.73;37.86;100495.17;1701408;84;21030;-54
2021/09/13 09:49:45;;;;;;;14.30;6.50;;;;;;;27.72;38.42;100487.70;1711103;83;21521;-54
2021/09/13 09:52:28;;;;;;;17.57;6.47;;;;;;;27.68;36.71;100493.78;1701367;84;21179;-54
2021/09/13 09:55:17;;;;;;;16.23;6.37;;;;;;;27.47;37.55;100490.37;1710231;83;20959;-53
2021/09/13 09:58:05;;;;;;;28.80;7.67;;;;;;;27.28;37.28;100487.20;1701403;84;21431;-54
2021/09/13 10:00:33;;;;;;;18.62;6.37;;;;;;;27.19;35.38;100482.20;1711065;83;21588;-53
2021/09/13 10:02:59;;;;;;;20.00;6.12;;;;;;;27.08;35.35;100489.80;1701481;84;21581;-53
2021/09/13 10:05:28;;;;;;;8.90;6.05;;;;;;;27.13;34.82;100481.44;1711556;83;21501;-53
2021/09/13 10:07:54;;;;;;;26.75;6.53;;;;;;;27.36;36.41;100484.21;1701229;84;20996;-52
2021/09/13 10:10:24;;;;;;;36.53;8.93;;;;;;;27.78;35.78;100487.61;1711272;82;21011;-53
2021/09/13 10:12:51;;;;;;;45.78;9.18;;;;;;;28.03;37.20;100484.03;1698547;84;22019;-53
2021/09/13 10:15:17;;;;;;;79.10;9.88;;;;;;;28.18;34.73;100477.33;1709115;83;20928;-53
2021/09/13 10:17:43;;;;;;;55.90;8.83;;;;;;;28.07;34.63;100478.80;1673100;85;21296;-52
2021/09/13 10:20:13;;;;;;;51.02;7.90;;;;;;;28.03;35.14;100478.23;1682359;85;20954;-52
2021/09/13 10:22:43;;;;;;;19.32;7.03;;;;;;;28.12;34.78;100476.55;1672915;85;20968;-53
2021/09/13 10:25:10;;;;;;;45.35;7.45;;;;;;;28.22;34.58;100471.23;1704640;82;20916;-53
2021/09/13 10:27:43;;;;;;;94.83;9.53;;;;;;;28.24;34.34;100468.77;1710891;83;21015;-53
2021/09/13 10:30:23;;;;;;;56.42;8.50;;;;;;;28.21;34.15;100470.38;1710869;82;21116;-53
2021/09/13 10:33:11;;;;;;;29.75;7.33;;;;;;;28.28;34.80;100465.34;1710452;83;20940;-53
2021/09/13 10:35:58;;;;;;;54.35;8.08;;;;;;;28.38;33.68;100466.13;1684814;83;21122;-53
2021/09/13 10:38:45;;;;;;;54.35;7.72;;;;;;;28.39;33.44;100464.33;1673238;85;21023;-52
2021/09/13 10:41:14;;;;;;;18.65;6.17;;;;;;;28.45;33.91;100458.92;1681510;84;21042;-52
2021/09/13 10:44:05;;;;;;;24.00;6.65;;;;;;;28.51;34.40;100457.00;1671833;84;21120;-53
2021/09/13 10:47:03;;;;;;;7.70;5.75;;;;;;;28.52;32.75;100454.18;1710577;82;20924;-52
2021/09/13 10:49:30;;;;;;;10.25;5.70;;;;;;;28.45;32.33;100451.77;1675782;84;20888;-52
2021/09/13 10:52:31;;;;;;;15.70;5.92;;;;;;;28.35;33.13;100458.45;1710082;82;20908;-52
2021/09/13 10:55:19;;;;;;;13.50;6.80;;;;;;;28.17;34.88;100457.03;1711165;83;21595;-52
2021/09/13 10:58:00;;;;;;;14.60;6.67;;;;;;;28.21;34.02;100448.28;1721326;83;21587;-53
2021/09/13 11:00:49;;;;;;;11.75;6.25;;;;;;;28.26;34.55;100444.69;1692191;83;21545;-53
2021/09/13 11:03:33;;;;;;;19.60;6.28;;;;;;;28.26;33.12;100451.34;1692503;83;20939;-53
2021/09/13 11:06:13;;;;;;;36.08;6.83;;;;;;;28.17;34.90;100441.06;1666456;84;20927;-52
2021/09/13 11:08:54;;;;;;;48.00;7.85;;;;;;;28.29;34.69;100436.89;1692786;84;20901;-53
2021/09/13 11:11:33;;;;;;;29.07;6.55;;;;;;;28.54;33.35;100434.91;1692173;83;21079;-52
2021/09/13 11:14:11;;;;;;;77.55;9.60;;;;;;;28.78;31.90;100429.55;1692560;84;20952;-52
2021/09/13 11:16:44;;;;;;;47.93;7.70;;;;;;;28.94;32.44;100428.95;1692493;84;21079;-52
2021/09/13 11:19:11;;;;;;;41.92;8.05;;;;;;;29.19;31.85;100429.22;1712540;83;20951;-53
2021/09/13 11:21:45;;;;;;;21.00;6.08;;;;;;;29.35;31.58;100429.02;1664461;85;22195;-53
2021/09/13 11:24:21;;;;;;;16.95;6.08;;;;;;;29.62;32.05;100419.28;1664535;86;21189;-52
2021/09/13 11:26:56;;;;;;;88.92;9.25;;;;;;;29.90;31.49;100420.00;1666901;84;21588;-53